KSEM/SEM METAR and TAF weather

Enter ICAO airport designator
Station Type Date Time Source
KSEM METAR 2019/10/23 20:35 UTC NOAA

KSEM 232035Z AUTO 05006KT 10SM 23/01 A3013 RMK AO2


Station Type Date Time Source
KSEM Decoded METAR 2019/10/23 20:35 UTC NOAA

Craig Field / Selma, AL, United States (KSEM) 32-21N 086-59W
Oct 23, 2019 - 04:35 PM EDT / 2019.10.23 2035 UTC
Wind: from the NE (050 degrees) at 7 MPH (6 KT):0
Visibility: 10 mile(s):0
Temperature: 73 F (23 C)
Dew Point: 33 F (1 C)
Relative Humidity: 23%
Pressure (altimeter): 30.13 in. Hg (1020 hPa)
ob: KSEM 232035Z AUTO 05006KT 10SM 23/01 A3013 RMK AO2
cycle: 20

Station Type Date Time Source
KSEM TAF UTC NOAA

Error!

Example: see airport list